createdAt,value
2023-01-13T00:01:54.116Z,100091.59
2023-01-13T00:04:24.018Z,100087.03
2023-01-13T00:06:53.976Z,100088.72
2023-01-13T00:09:26.527Z,100078.75
2023-01-13T00:11:56.479Z,100092.91
2023-01-13T00:14:29.747Z,100073.16
2023-01-13T00:16:59.666Z,100072.50
2023-01-13T00:19:29.529Z,100061.88
2023-01-13T00:21:59.450Z,100066.81
2023-01-13T00:24:32.024Z,100050.78
2023-01-13T00:27:01.895Z,100045.00
2023-01-13T00:29:32.166Z,100047.53
2023-01-13T00:32:01.963Z,100046.69
2023-01-13T00:34:31.880Z,100041.66
2023-01-13T00:37:01.721Z,100043.50
2023-01-13T00:39:34.194Z,100062.25
2023-01-13T00:42:16.461Z,100032.88
2023-01-13T00:44:46.238Z,100040.69
2023-01-13T00:47:16.080Z,100047.16
2023-01-13T00:49:45.889Z,100039.47
2023-01-13T00:52:15.851Z,100036.41
2023-01-13T00:54:48.267Z,100035.78
2023-01-13T00:57:18.849Z,100028.19
2023-01-13T00:59:49.642Z,100027.66
2023-01-13T01:02:19.621Z,100023.97
2023-01-13T01:04:49.434Z,100026.72
2023-01-13T01:07:19.353Z,100032.97
2023-01-13T01:09:52.586Z,100024.19
2023-01-13T01:12:22.452Z,100023.34
2023-01-13T01:14:52.285Z,100011.03
2023-01-13T01:17:22.247Z,100017.97
2023-01-13T01:19:52.113Z,100031.13
2023-01-13T01:22:21.919Z,100021.03
2023-01-13T01:24:54.346Z,100036.69
2023-01-13T01:27:24.598Z,100040.81
2023-01-13T01:29:54.406Z,100025.81
2023-01-13T01:32:24.410Z,100039.66
2023-01-13T01:34:54.831Z,100043.38
2023-01-13T01:37:24.654Z,100035.28
2023-01-13T01:39:57.084Z,100041.72
2023-01-13T01:42:39.338Z,100031.47
2023-01-13T01:45:18.220Z,100023.16
2023-01-13T01:47:52.870Z,100027.34
2023-01-13T01:50:23.364Z,100015.06
2023-01-13T01:52:59.424Z,100011.34
2023-01-13T01:55:37.438Z,100013.28
2023-01-13T01:58:13.992Z,100010.91
2023-01-13T02:00:43.842Z,100005.19
2023-01-13T02:03:14.406Z,100000.44
2023-01-13T02:05:44.524Z,99999.44
2023-01-13T02:08:16.779Z,100016.03
2023-01-13T02:10:56.391Z,100007.75
2023-01-13T02:13:23.935Z,99999.69
2023-01-13T02:16:01.604Z,99995.88
2023-01-13T02:18:49.649Z,99985.06
2023-01-13T02:21:51.859Z,99984.44
2023-01-13T02:24:56.388Z,99987.47
2023-01-13T02:27:46.636Z,100001.34
2023-01-13T02:30:46.121Z,99983.84
2023-01-13T02:33:51.149Z,99981.81
2023-01-13T02:36:34.421Z,99996.78
2023-01-13T02:39:12.804Z,99976.22
2023-01-13T02:42:05.299Z,99965.94
2023-01-13T02:44:44.092Z,99967.78
2023-01-13T02:47:21.783Z,99962.50
2023-01-13T02:49:56.591Z,99961.47
2023-01-13T02:52:33.100Z,99953.50
2023-01-13T02:55:09.374Z,99965.25
2023-01-13T02:57:42.487Z,99957.16
2023-01-13T03:00:16.553Z,99958.00
2023-01-13T03:02:50.851Z,99949.00
2023-01-13T03:05:21.243Z,99940.06
2023-01-13T03:08:04.212Z,99940.34
2023-01-13T03:10:52.061Z,99936.28
2023-01-13T03:13:41.265Z,99911.78
2023-01-13T03:16:23.780Z,99921.88
2023-01-13T03:19:09.939Z,99908.84
2023-01-13T03:21:51.021Z,99912.56
2023-01-13T03:24:28.638Z,99913.72
2023-01-13T03:27:07.100Z,99904.78
2023-01-13T03:29:41.692Z,99885.88
2023-01-13T03:32:19.044Z,99902.91
2023-01-13T03:34:56.105Z,99900.69
2023-01-13T03:37:33.408Z,99884.13
2023-01-13T03:40:10.414Z,99892.56
2023-01-13T03:43:04.479Z,99882.25
2023-01-13T03:45:36.045Z,99877.56
2023-01-13T03:48:13.824Z,99885.50
2023-01-13T03:50:52.556Z,99883.91
2023-01-13T03:53:28.917Z,99886.34
2023-01-13T03:56:04.965Z,99864.81
2023-01-13T03:58:41.411Z,99876.28
2023-01-13T04:01:18.568Z,99864.81
2023-01-13T04:03:56.945Z,99861.50
2023-01-13T04:06:41.662Z,99878.41
2023-01-13T04:09:21.478Z,99869.59
2023-01-13T04:11:58.557Z,99863.53
2023-01-13T04:14:31.315Z,99864.44
2023-01-13T04:17:01.454Z,99863.78
2023-01-13T04:19:31.808Z,99854.41
2023-01-13T04:22:04.226Z,99868.56
2023-01-13T04:24:34.051Z,99855.59
2023-01-13T04:27:03.918Z,99855.50
2023-01-13T04:29:33.706Z,99862.19
2023-01-13T04:32:03.586Z,99849.38
2023-01-13T04:34:33.542Z,99854.41
2023-01-13T04:37:06.055Z,99841.94
2023-01-13T04:39:35.936Z,99844.97
2023-01-13T04:42:05.822Z,99837.97
2023-01-13T04:44:36.179Z,99837.28
2023-01-13T04:47:07.979Z,99844.72
2023-01-13T04:49:37.824Z,99845.06
2023-01-13T04:52:10.367Z,99851.13
2023-01-13T04:54:40.173Z,99825.41
2023-01-13T04:57:10.065Z,99833.91
2023-01-13T04:59:42.115Z,99826.66
2023-01-13T05:02:19.595Z,99830.19
2023-01-13T05:04:49.951Z,99822.72
2023-01-13T05:07:22.451Z,99817.53
2023-01-13T05:09:52.243Z,99816.50
2023-01-13T05:12:34.636Z,99824.41
2023-01-13T05:15:16.988Z,99821.06
2023-01-13T05:17:47.287Z,99836.22
2023-01-13T05:20:18.226Z,99827.31
2023-01-13T05:23:03.137Z,99847.59
2023-01-13T05:25:33.027Z,99830.38
2023-01-13T05:28:03.278Z,99837.97
2023-01-13T05:30:36.334Z,99845.44
2023-01-13T05:33:06.477Z,99830.63
2023-01-13T05:35:36.333Z,99841.41
2023-01-13T05:38:08.809Z,99844.03
2023-01-13T05:40:54.023Z,99828.03
2023-01-13T05:43:24.989Z,99839.47
2023-01-13T05:45:59.565Z,99835.38
2023-01-13T05:48:33.146Z,99824.28
2023-01-13T05:51:03.319Z,99844.78
2023-01-13T05:53:36.610Z,99834.81
2023-01-13T05:56:07.973Z,99839.94
2023-01-13T05:58:38.294Z,99837.97
2023-01-13T06:01:10.185Z,99831.28
2023-01-13T06:03:40.565Z,99832.97
2023-01-13T06:06:10.822Z,99816.59
2023-01-13T06:08:43.302Z,99815.19
2023-01-13T06:11:13.268Z,99828.88
2023-01-13T06:13:43.122Z,99814.44
2023-01-13T06:16:13.433Z,99823.47
2023-01-13T06:18:43.357Z,99821.69
2023-01-13T06:21:13.189Z,99829.81
2023-01-13T06:23:45.683Z,99845.72
2023-01-13T06:26:21.752Z,99839.66
2023-01-13T06:28:51.818Z,99844.22
2023-01-13T06:31:23.309Z,99828.41
2023-01-13T06:33:59.699Z,99842.09
2023-01-13T06:36:35.740Z,99834.66
2023-01-13T06:39:09.178Z,99834.34
2023-01-13T06:41:51.657Z,99810.88
2023-01-13T06:44:23.834Z,99835.75
2023-01-13T06:46:54.297Z,99852.59
2023-01-13T06:49:24.187Z,99846.53
2023-01-13T06:51:54.153Z,99837.78
2023-01-13T06:54:27.853Z,99833.78
2023-01-13T06:56:57.884Z,99849.91
2023-01-13T06:59:28.064Z,99867.00
2023-01-13T07:01:58.090Z,99844.50
2023-01-13T07:04:28.436Z,99853.97
2023-01-13T07:06:58.644Z,99855.41
2023-01-13T07:09:31.199Z,99856.50
2023-01-13T07:12:01.031Z,99864.69
2023-01-13T07:14:43.313Z,99873.19
2023-01-13T07:17:13.372Z,99871.38
2023-01-13T07:19:43.287Z,99864.84
2023-01-13T07:22:16.372Z,99885.59
2023-01-13T07:24:48.854Z,99902.56
2023-01-13T07:27:18.723Z,99921.09
2023-01-13T07:29:50.070Z,99914.75
2023-01-13T07:32:19.984Z,99928.59
2023-01-13T07:34:49.825Z,99949.69
2023-01-13T07:37:19.750Z,99969.97
2023-01-13T07:39:52.165Z,99979.50
2023-01-13T07:42:34.438Z,100001.94
2023-01-13T07:45:04.325Z,100019.38
2023-01-13T07:47:34.704Z,100018.41
2023-01-13T07:50:04.763Z,100029.50
2023-01-13T07:52:34.647Z,100020.94
2023-01-13T07:55:07.654Z,100013.69
2023-01-13T07:57:37.599Z,100025.47
2023-01-13T08:00:10.490Z,100021.78
2023-01-13T08:02:42.071Z,100020.78
2023-01-13T08:05:13.352Z,100032.19
2023-01-13T08:07:43.249Z,100021.75
2023-01-13T08:10:16.112Z,100028.47
2023-01-13T08:13:01.282Z,100034.22
2023-01-13T08:15:31.620Z,100041.63
2023-01-13T08:18:01.870Z,100039.94
2023-01-13T08:20:31.757Z,100039.25
2023-01-13T08:23:02.818Z,100034.06
2023-01-13T08:25:35.723Z,100064.13
2023-01-13T08:28:06.195Z,100063.66
2023-01-13T08:30:36.155Z,100073.22
2023-01-13T08:33:10.079Z,100079.81
2023-01-13T08:35:40.632Z,100080.16
2023-01-13T08:38:11.749Z,100087.88
2023-01-13T08:40:44.806Z,100082.88
2023-01-13T08:43:14.859Z,100083.72
2023-01-13T08:45:45.095Z,100090.94
2023-01-13T08:48:14.963Z,100097.81
2023-01-13T08:50:44.796Z,100100.84
2023-01-13T08:53:14.673Z,100100.34
2023-01-13T08:55:47.141Z,100094.81
2023-01-13T08:58:17.025Z,100097.16
2023-01-13T09:00:47.234Z,100111.28
2023-01-13T09:03:17.304Z,100103.03
2023-01-13T09:05:47.153Z,100116.00
2023-01-13T09:08:17.012Z,100105.88
2023-01-13T09:10:49.558Z,100124.56
2023-01-13T09:13:17.201Z,100123.41
2023-01-13T09:15:49.056Z,100122.03
2023-01-13T09:18:19.004Z,100128.84
2023-01-13T09:20:48.891Z,100137.56
2023-01-13T09:23:18.849Z,100135.91
2023-01-13T09:25:51.999Z,100133.34
2023-01-13T09:28:22.070Z,100127.47
2023-01-13T09:30:52.046Z,100127.81
2023-01-13T09:33:49.606Z,100132.69
2023-01-13T09:36:19.635Z,100138.59
2023-01-13T09:38:51.663Z,100139.94
2023-01-13T09:41:41.259Z,100155.59
2023-01-13T09:44:21.891Z,100165.22
2023-01-13T09:46:59.221Z,100160.16
2023-01-13T09:49:37.577Z,100154.44
2023-01-13T09:52:19.404Z,100144.00
2023-01-13T09:54:56.459Z,100155.47
2023-01-13T09:57:35.257Z,100151.75
2023-01-13T10:00:09.865Z,100153.59
2023-01-13T10:03:16.438Z,100149.22
2023-01-13T10:05:56.485Z,100143.28
2023-01-13T10:08:30.949Z,100134.22
2023-01-13T10:11:23.683Z,100139.44
2023-01-13T10:14:00.372Z,100144.34
2023-01-13T10:16:42.296Z,100150.06
2023-01-13T10:19:22.691Z,100149.06
2023-01-13T10:22:31.160Z,100151.75
2023-01-13T10:25:21.865Z,100168.25
2023-01-13T10:27:55.419Z,100161.53
2023-01-13T10:30:40.137Z,100172.63
2023-01-13T10:33:17.587Z,100170.28
2023-01-13T10:35:58.143Z,100182.56
2023-01-13T10:38:31.847Z,100180.88
2023-01-13T10:41:03.922Z,100180.72
2023-01-13T10:43:34.665Z,100170.47
2023-01-13T10:46:10.253Z,100169.09
2023-01-13T10:48:44.016Z,100162.31
2023-01-13T10:51:29.917Z,100164.91
2023-01-13T10:54:03.361Z,100165.91
2023-01-13T10:56:35.970Z,100165.16
2023-01-13T10:59:17.614Z,100168.28
2023-01-13T11:02:04.072Z,100172.63
2023-01-13T11:04:43.631Z,100173.31
2023-01-13T11:07:28.409Z,100175.69
2023-01-13T11:10:19.414Z,100175.66
2023-01-13T11:13:00.285Z,100180.53
2023-01-13T11:15:42.713Z,100192.88
2023-01-13T11:18:26.189Z,100190.13
2023-01-13T11:21:01.035Z,100190.53
2023-01-13T11:23:39.523Z,100193.88
2023-01-13T11:26:19.109Z,100187.13
2023-01-13T11:28:59.858Z,100193.56
2023-01-13T11:31:38.800Z,100196.53
2023-01-13T11:34:28.283Z,100190.69
2023-01-13T11:37:03.217Z,100201.31
2023-01-13T11:39:50.524Z,100203.47
2023-01-13T11:42:28.919Z,100202.66
2023-01-13T11:45:10.655Z,100210.53
2023-01-13T11:47:41.995Z,100213.22
2023-01-13T11:50:24.355Z,100243.19
2023-01-13T11:53:23.833Z,100230.31
2023-01-13T11:56:08.260Z,100239.69
2023-01-13T11:59:07.480Z,100237.03
2023-01-13T12:01:52.629Z,100235.75
2023-01-13T12:04:32.086Z,100234.28
2023-01-13T12:07:22.886Z,100221.91
2023-01-13T12:10:11.610Z,100225.16
2023-01-13T12:12:56.365Z,100228.94
2023-01-13T12:15:58.928Z,100233.00
2023-01-13T12:19:07.773Z,100237.88
2023-01-13T12:21:45.325Z,100235.84
2023-01-13T12:24:27.617Z,100240.97
2023-01-13T12:27:02.467Z,100235.25
2023-01-13T12:29:36.851Z,100232.88
2023-01-13T12:32:10.357Z,100223.47
2023-01-13T12:34:55.201Z,100232.09
2023-01-13T12:37:36.246Z,100245.44
2023-01-13T12:40:28.318Z,100253.13
2023-01-13T12:43:23.679Z,100245.00
2023-01-13T12:45:53.732Z,100249.66
2023-01-13T12:48:49.313Z,100246.31
2023-01-13T12:51:27.976Z,100238.28
2023-01-13T12:53:59.076Z,100237.31
2023-01-13T12:56:47.259Z,100236.84
2023-01-13T12:59:38.594Z,100235.50
2023-01-13T13:02:30.803Z,100251.94
2023-01-13T13:05:24.485Z,100241.47
2023-01-13T13:08:07.226Z,100251.16
2023-01-13T13:10:42.957Z,100235.59
2023-01-13T13:13:42.108Z,100262.06
2023-01-13T13:16:41.994Z,100252.41
2023-01-13T13:19:41.962Z,100248.00
2023-01-13T13:22:47.322Z,100252.50
2023-01-13T13:25:27.239Z,100249.78
2023-01-13T13:28:17.797Z,100247.50
2023-01-13T13:31:10.313Z,100250.69
2023-01-13T13:33:52.424Z,100259.00
2023-01-13T13:36:49.428Z,100255.19
2023-01-13T13:39:39.949Z,100274.59
2023-01-13T13:42:29.041Z,100267.19
2023-01-13T13:45:15.245Z,100271.63
2023-01-13T13:47:48.112Z,100284.06
2023-01-13T13:50:20.544Z,100280.13
2023-01-13T13:52:58.572Z,100279.41
2023-01-13T13:55:31.302Z,100297.75
2023-01-13T13:58:02.721Z,100295.13
2023-01-13T14:00:36.919Z,100284.31
2023-01-13T14:03:24.867Z,100293.72
2023-01-13T14:05:59.969Z,100307.72
2023-01-13T14:08:32.822Z,100322.75
2023-01-13T14:11:03.425Z,100316.34
2023-01-13T14:13:34.506Z,100325.97
2023-01-13T14:16:07.207Z,100322.03
2023-01-13T14:18:48.720Z,100328.84
2023-01-13T14:21:23.736Z,100324.91
2023-01-13T14:23:56.825Z,100313.31
2023-01-13T14:26:29.394Z,100305.88
2023-01-13T14:29:01.613Z,100316.06
2023-01-13T14:31:33.239Z,100309.81
2023-01-13T14:34:31.707Z,100304.91
2023-01-13T14:36:58.522Z,100301.16
2023-01-13T14:39:38.864Z,100304.53
2023-01-13T14:42:16.136Z,100312.22
2023-01-13T14:44:49.235Z,100305.66
2023-01-13T14:47:27.479Z,100323.31
2023-01-13T14:50:05.707Z,100324.69
2023-01-13T14:52:39.373Z,100332.56
2023-01-13T14:55:26.624Z,100338.28
2023-01-13T14:58:17.341Z,100353.69
2023-01-13T15:00:47.612Z,100354.88
2023-01-13T15:03:19.649Z,100362.28
2023-01-13T15:05:54.126Z,100368.13
2023-01-13T15:08:40.057Z,100375.44
2023-01-13T15:11:25.209Z,100377.75
2023-01-13T15:14:02.105Z,100391.53
2023-01-13T15:16:34.942Z,100393.50
2023-01-13T15:19:05.359Z,100386.50
2023-01-13T15:21:37.869Z,100387.88
2023-01-13T15:24:08.820Z,100395.22
2023-01-13T15:26:38.887Z,100375.78
2023-01-13T15:29:17.436Z,100388.59
2023-01-13T15:31:47.293Z,100391.53
2023-01-13T15:34:17.306Z,100401.00
2023-01-13T15:36:49.825Z,100401.44
2023-01-13T15:39:19.702Z,100411.25
2023-01-13T15:42:02.091Z,100417.72
2023-01-13T15:44:44.456Z,100440.31
2023-01-13T15:47:14.797Z,100426.78
2023-01-13T15:49:47.660Z,100441.13
2023-01-13T15:52:24.131Z,100447.84
2023-01-13T15:54:55.509Z,100435.69
2023-01-13T15:57:28.610Z,100445.03
2023-01-13T16:00:01.074Z,100451.72
2023-01-13T16:02:31.258Z,100456.91
2023-01-13T16:05:01.227Z,100458.59
2023-01-13T16:07:33.883Z,100450.03
2023-01-13T16:10:05.135Z,100457.41
2023-01-13T16:12:35.491Z,100464.03
2023-01-13T16:15:05.485Z,100461.47
2023-01-13T16:17:37.901Z,100464.66
2023-01-13T16:20:09.255Z,100470.88
2023-01-13T16:22:41.716Z,100469.28
2023-01-13T16:25:19.293Z,100481.13
2023-01-13T16:27:49.515Z,100482.47
2023-01-13T16:30:26.580Z,100470.03
2023-01-13T16:32:57.072Z,100477.50
2023-01-13T16:35:28.768Z,100480.25
2023-01-13T16:38:01.542Z,100484.66
2023-01-13T16:40:34.138Z,100490.84
2023-01-13T16:43:06.910Z,100501.56
2023-01-13T16:45:37.351Z,100502.78
2023-01-13T16:48:07.950Z,100509.25
2023-01-13T16:50:41.433Z,100514.53
2023-01-13T16:53:14.855Z,100503.59
2023-01-13T16:55:46.180Z,100519.34
2023-01-13T16:58:20.442Z,100514.81
2023-01-13T17:00:52.958Z,100531.94
2023-01-13T17:03:22.975Z,100525.88
2023-01-13T17:05:52.880Z,100528.25
2023-01-13T17:08:25.827Z,100533.19
2023-01-13T17:10:55.685Z,100530.47
2023-01-13T17:13:25.512Z,100534.72
2023-01-13T17:15:55.447Z,100534.72
2023-01-13T17:18:25.296Z,100540.41
2023-01-13T17:20:55.230Z,100541.41
2023-01-13T17:23:28.941Z,100545.25
2023-01-13T17:25:58.764Z,100542.41
2023-01-13T17:28:28.647Z,100560.56
2023-01-13T17:30:58.579Z,100554.09
2023-01-13T17:33:29.643Z,100571.13
2023-01-13T17:35:59.508Z,100561.69
2023-01-13T17:38:32.036Z,100568.59
2023-01-13T17:41:05.938Z,100570.75
2023-01-13T17:43:35.968Z,100574.88
2023-01-13T17:46:10.293Z,100581.69
2023-01-13T17:48:40.321Z,100591.75
2023-01-13T17:51:13.909Z,100594.91
2023-01-13T17:53:47.134Z,100596.59
2023-01-13T17:56:18.791Z,100601.97
2023-01-13T17:58:48.732Z,100611.75
2023-01-13T18:01:21.533Z,100627.31
2023-01-13T18:03:52.005Z,100614.84
2023-01-13T18:06:24.354Z,100627.31
2023-01-13T18:08:57.434Z,100629.00
2023-01-13T18:11:28.232Z,100642.75
2023-01-13T18:14:00.307Z,100626.25
2023-01-13T18:16:32.695Z,100625.41
2023-01-13T18:19:15.484Z,100637.59
2023-01-13T18:21:58.040Z,100624.03
2023-01-13T18:24:43.121Z,100639.91
2023-01-13T18:27:26.588Z,100663.09
2023-01-13T18:29:58.912Z,100654.19
2023-01-13T18:32:33.070Z,100652.63
2023-01-13T18:35:06.629Z,100655.59
2023-01-13T18:37:42.113Z,100643.88
2023-01-13T18:40:16.560Z,100642.31
2023-01-13T18:42:54.065Z,100656.44
2023-01-13T18:45:28.646Z,100657.31
2023-01-13T18:48:00.398Z,100652.66
2023-01-13T18:50:30.936Z,100660.41
2023-01-13T18:53:01.453Z,100675.41
2023-01-13T18:55:33.933Z,100674.28
2023-01-13T18:58:04.466Z,100687.97
2023-01-13T19:00:37.422Z,100687.97
2023-01-13T19:05:38.723Z,100681.75
2023-01-13T19:08:08.873Z,100701.41
2023-01-13T19:10:42.166Z,100700.41
2023-01-13T19:13:12.134Z,100706.63
2023-01-13T19:15:42.101Z,100710.59
2023-01-13T19:18:13.454Z,100721.63
2023-01-13T19:20:43.287Z,100734.91
2023-01-13T19:23:13.172Z,100744.53
2023-01-13T19:25:45.638Z,100738.59
2023-01-13T19:28:15.505Z,100742.25
2023-01-13T19:30:45.442Z,100756.41
2023-01-13T19:33:15.316Z,100755.53
2023-01-13T19:35:45.150Z,100765.75
2023-01-13T19:38:15.005Z,100770.53
2023-01-13T19:40:54.948Z,100757.09
2023-01-13T19:43:38.161Z,100765.28
2023-01-13T19:46:08.438Z,100770.53
2023-01-13T19:48:38.347Z,100777.28
2023-01-13T19:51:09.169Z,100775.06
2023-01-13T19:53:39.055Z,100774.91
2023-01-13T19:56:16.702Z,100786.91
2023-01-13T19:58:50.751Z,100778.44
2023-01-13T20:01:21.124Z,100779.72
2023-01-13T20:03:51.149Z,100795.69
2023-01-13T20:06:21.082Z,100805.28
2023-01-13T20:08:51.090Z,100804.13
2023-01-13T20:11:31.435Z,100815.03
2023-01-13T20:14:03.198Z,100812.09
2023-01-13T20:16:33.839Z,100817.19
2023-01-13T20:19:03.743Z,100797.09
2023-01-13T20:21:33.660Z,100801.06
2023-01-13T20:24:03.532Z,100821.00
2023-01-13T20:26:37.619Z,100821.16
2023-01-13T20:29:07.550Z,100829.94
2023-01-13T20:31:37.573Z,100814.69
2023-01-13T20:34:08.629Z,100827.97
2023-01-13T20:36:41.406Z,100833.91
2023-01-13T20:39:13.217Z,100831.97
2023-01-13T20:42:10.045Z,100833.91
2023-01-13T20:44:40.055Z,100830.25
2023-01-13T20:47:10.276Z,100834.78
2023-01-13T20:49:40.278Z,100823.03
2023-01-13T20:52:11.947Z,100832.50
2023-01-13T20:54:43.501Z,100829.97
2023-01-13T20:57:16.392Z,100818.91
2023-01-13T20:59:46.331Z,100822.75
2023-01-13T21:02:18.255Z,100813.84
2023-01-13T21:04:48.151Z,100818.63
2023-01-13T21:07:18.078Z,100816.94
2023-01-13T21:09:48.068Z,100823.88
2023-01-13T21:12:33.135Z,100827.13
2023-01-13T21:15:15.657Z,100828.41
2023-01-13T21:17:58.732Z,100826.00
2023-01-13T21:20:30.647Z,100831.78
2023-01-13T21:23:00.566Z,100857.06
2023-01-13T21:25:30.712Z,100832.75
2023-01-13T21:28:08.206Z,100835.31
2023-01-13T21:30:39.175Z,100843.81
2023-01-13T21:33:09.404Z,100835.88
2023-01-13T21:35:42.399Z,100838.41
2023-01-13T21:38:13.803Z,100839.25
2023-01-13T21:40:43.702Z,100835.16
2023-01-13T21:43:29.716Z,100841.38
2023-01-13T21:46:12.376Z,100843.22
2023-01-13T21:48:42.355Z,100840.94
2023-01-13T21:51:12.238Z,100846.88
2023-01-13T21:53:42.098Z,100855.94
2023-01-13T21:56:12.015Z,100851.09
2023-01-13T21:58:44.546Z,100853.81
2023-01-13T22:01:14.637Z,100851.09
2023-01-13T22:03:57.102Z,100855.06
2023-01-13T22:06:27.938Z,100855.94
2023-01-13T22:09:01.015Z,100859.59
2023-01-13T22:11:31.923Z,100858.44
2023-01-13T22:14:14.058Z,100863.50
2023-01-13T22:16:49.747Z,100867.19
2023-01-13T22:19:19.890Z,100866.88
2023-01-13T22:21:49.766Z,100864.63
2023-01-13T22:24:19.882Z,100872.25
2023-01-13T22:26:49.862Z,100872.56
2023-01-13T22:29:22.385Z,100872.81
2023-01-13T22:31:52.483Z,100873.09
2023-01-13T22:34:23.180Z,100878.19
2023-01-13T22:36:53.154Z,100879.31
2023-01-13T22:39:23.375Z,100884.34
2023-01-13T22:41:53.588Z,100875.91
2023-01-13T22:44:26.524Z,100874.78
2023-01-13T22:46:56.523Z,100882.38
2023-01-13T22:49:26.749Z,100888.47
2023-01-13T22:51:56.730Z,100881.53
2023-01-13T22:54:26.647Z,100892.41
2023-01-13T22:56:56.600Z,100892.88
2023-01-13T22:59:29.358Z,100890.06
2023-01-13T23:01:59.329Z,100879.56
2023-01-13T23:04:29.351Z,100882.38
2023-01-13T23:07:00.048Z,100895.69
2023-01-13T23:09:31.545Z,100878.19
2023-01-13T23:12:01.542Z,100879.16
2023-01-13T23:14:34.210Z,100880.72
2023-01-13T23:17:04.751Z,100884.84
2023-01-13T23:19:35.093Z,100887.94
2023-01-13T23:22:05.022Z,100883.53
2023-01-13T23:24:35.043Z,100887.25
2023-01-13T23:27:04.866Z,100893.47
2023-01-13T23:29:37.373Z,100899.44
2023-01-13T23:32:08.158Z,100896.03
2023-01-13T23:34:38.025Z,100897.44
2023-01-13T23:37:07.991Z,100893.91
2023-01-13T23:39:37.927Z,100895.44
2023-01-13T23:42:07.958Z,100898.81
2023-01-13T23:44:40.518Z,100901.38
2023-01-13T23:47:11.759Z,100901.91
2023-01-13T23:49:41.899Z,100906.72
2023-01-13T23:52:12.007Z,100903.00
2023-01-13T23:54:41.888Z,100909.06
2023-01-13T23:57:11.752Z,100902.72
2023-01-13T23:59:44.231Z,100914.22
